Time;durP1;ratioP1;P1;durP2;ratioP2;P2;SDS_P1;SDS_P2;PMS_P1;PMS_P2;Temp;Humidity;BMP_temperature;BMP_pressure;BME280_temperature;BME280_humidity;BME280_pressure;Samples;Min_cycle;Max_cycle;Signal;HPM_P1;HPM_P2
2023/04/17 00:02:10;;;;;;;;;;;;;;;14.52;nan;102341.41;4959169;28;19941;-85
2023/04/17 00:04:37;;;;;;;;;;;;;;;14.48;nan;102340.25;4961180;28;20293;-85
2023/04/17 00:07:02;;;;;;;;;;;;;;;14.47;nan;102346.69;4959538;28;19988;-85
2023/04/17 00:09:28;;;;;;;;;;;;;;;14.45;nan;102341.53;4961268;28;20345;-85
2023/04/17 00:11:54;;;;;;;;;;;;;;;14.44;nan;102349.84;4961628;28;19925;-85
2023/04/17 00:14:20;;;;;;;;;;;;;;;14.41;nan;102345.72;4976455;28;19926;-85
2023/04/17 00:16:45;;;;;;;;;;;;;;;14.39;nan;102347.03;4963531;29;19930;-84
2023/04/17 00:19:13;;;;;;;;;;;;;;;14.35;nan;102341.25;4959922;28;19929;-85
2023/04/17 00:21:38;;;;;;;;;;;;;;;14.34;nan;102355.78;4959021;28;19918;-85
2023/04/17 00:24:03;;;;;;;;;;;;;;;14.34;nan;102346.88;4961826;29;19925;-84
2023/04/17 00:26:31;;;;;;;;;;;;;;;14.31;nan;102341.97;4960623;29;19926;-85
2023/04/17 00:28:56;;;;;;;;;;;;;;;14.29;nan;102352.16;4962389;28;19928;-85
2023/04/17 00:31:22;;;;;;;;;;;;;;;14.24;nan;102349.34;4958945;28;19922;-85
2023/04/17 00:33:49;;;;;;;;;;;;;;;14.18;nan;102346.53;4961068;28;19918;-85
2023/04/17 00:36:15;;;;;;;;;;;;;;;14.10;nan;102349.56;4961060;28;19942;-85
2023/04/17 00:38:40;;;;;;;;;;;;;;;14.05;nan;102354.84;4961795;28;19926;-85
2023/04/17 00:41:06;;;;;;;;;;;;;;;14.05;nan;102351.31;4958652;28;19927;-85
2023/04/17 00:43:31;;;;;;;;;;;;;;;14.07;nan;102350.03;4956939;28;19967;-85
2023/04/17 00:45:57;;;;;;;;;;;;;;;14.07;nan;102349.22;4958440;28;19918;-85
2023/04/17 00:48:23;;;;;;;;;;;;;;;14.03;nan;102354.25;4956525;28;20484;-85
2023/04/17 00:50:49;;;;;;;;;;;;;;;14.02;nan;102357.19;4956000;28;19918;-85
2023/04/17 00:53:14;;;;;;;;;;;;;;;14.00;nan;102357.38;4955928;28;19950;-85
2023/04/17 00:55:40;;;;;;;;;;;;;;;14.00;nan;102353.88;4958932;28;20451;-85
2023/04/17 00:58:07;;;;;;;;;;;;;;;14.00;nan;102357.38;4957723;28;19981;-85
2023/04/17 01:00:33;;;;;;;;;;;;;;;14.01;nan;102352.84;4957260;28;19999;-85
2023/04/17 01:02:59;;;;;;;;;;;;;;;14.02;nan;102363.41;4957652;28;19957;-85
2023/04/17 01:05:24;;;;;;;;;;;;;;;14.03;nan;102364.22;4954604;29;19919;-84
2023/04/17 01:07:50;;;;;;;;;;;;;;;14.02;nan;102367.97;4957248;28;20475;-85
2023/04/17 01:10:16;;;;;;;;;;;;;;;14.01;nan;102359.06;4958174;28;21857;-85
2023/04/17 01:12:45;;;;;;;;;;;;;;;13.98;nan;102364.06;4958619;29;19930;-85
2023/04/17 01:15:10;;;;;;;;;;;;;;;13.97;nan;102362.44;4958834;28;19926;-84
2023/04/17 01:17:36;;;;;;;;;;;;;;;13.98;nan;102364.06;4959168;28;19925;-85
2023/04/17 01:20:05;;;;;;;;;;;;;;;13.97;nan;102368.63;4958372;28;20017;-84
2023/04/17 01:22:30;;;;;;;;;;;;;;;13.95;nan;102364.53;4959646;28;19926;-85
2023/04/17 01:24:56;;;;;;;;;;;;;;;13.91;nan;102367.69;4960709;28;19926;-84
2023/04/17 01:27:21;;;;;;;;;;;;;;;13.89;nan;102369.81;4955510;29;19919;-85
2023/04/17 01:29:46;;;;;;;;;;;;;;;13.88;nan;102368.16;4956587;28;19949;-85
2023/04/17 01:32:12;;;;;;;;;;;;;;;13.89;nan;102366.28;4958069;28;20507;-84
2023/04/17 01:34:37;;;;;;;;;;;;;;;13.91;nan;102367.69;4957797;28;19924;-85
2023/04/17 01:37:03;;;;;;;;;;;;;;;13.89;nan;102369.81;4957038;28;20288;-85
2023/04/17 01:39:28;;;;;;;;;;;;;;;13.85;nan;102371.31;4957639;28;19922;-85
2023/04/17 01:41:53;;;;;;;;;;;;;;;13.84;nan;102375.06;4956824;28;19918;-84
2023/04/17 01:44:19;;;;;;;;;;;;;;;13.82;nan;102368.25;4959467;29;20162;-85
2023/04/17 01:46:45;;;;;;;;;;;;;;;13.82;nan;102381.72;4957576;29;19926;-85
2023/04/17 01:49:10;;;;;;;;;;;;;;;13.82;nan;102381.72;4955595;28;19926;-84
2023/04/17 01:51:36;;;;;;;;;;;;;;;13.82;nan;102376.31;4956205;28;19949;-84
2023/04/17 01:54:01;;;;;;;;;;;;;;;13.81;nan;102380.06;4955664;29;19930;-84
2023/04/17 01:56:27;;;;;;;;;;;;;;;13.82;nan;102379.03;4958277;28;19923;-85
2023/04/17 01:58:52;;;;;;;;;;;;;;;13.79;nan;102380.31;4957859;28;19989;-84
2023/04/17 02:01:18;;;;;;;;;;;;;;;13.79;nan;102379.47;4953351;28;19985;-84
2023/04/17 02:03:43;;;;;;;;;;;;;;;13.75;nan;102372.91;4956083;28;19919;-84
2023/04/17 02:06:08;;;;;;;;;;;;;;;13.75;nan;102381.81;4957096;28;19926;-85
2023/04/17 02:08:34;;;;;;;;;;;;;;;13.74;nan;102376.66;4957397;28;19928;-84
2023/04/17 02:10:59;;;;;;;;;;;;;;;13.69;nan;102374.66;4954528;28;19922;-85
2023/04/17 02:13:25;;;;;;;;;;;;;;;13.66;nan;102380.50;4953377;28;19923;-84
2023/04/17 02:15:50;;;;;;;;;;;;;;;13.64;nan;102385.28;4957150;28;19926;-84
2023/04/17 02:18:15;;;;;;;;;;;;;;;13.61;nan;102381.19;4955172;28;19930;-85
2023/04/17 02:20:41;;;;;;;;;;;;;;;13.62;nan;102384.69;4956052;28;20551;-85
2023/04/17 02:23:06;;;;;;;;;;;;;;;13.59;nan;102385.97;4953971;28;20009;-84
2023/04/17 02:25:32;;;;;;;;;;;;;;;13.53;nan;102383.38;4955690;28;19919;-84
2023/04/17 02:27:58;;;;;;;;;;;;;;;13.48;nan;102384.06;4956818;28;19918;-85
2023/04/17 02:30:24;;;;;;;;;;;;;;;13.44;nan;102384.72;4958706;28;20401;-84
2023/04/17 02:32:52;;;;;;;;;;;;;;;13.40;nan;102384.38;4959021;28;20336;-83
2023/04/17 02:35:24;;;;;;;;;;;;;;;13.39;nan;102388.13;4956163;28;20458;-84
2023/04/17 02:37:50;;;;;;;;;;;;;;;13.38;nan;102388.34;4956879;28;19949;-83
2023/04/17 02:40:16;;;;;;;;;;;;;;;13.33;nan;102389.03;4953420;28;19934;-84
2023/04/17 02:42:41;;;;;;;;;;;;;;;13.31;nan;102388.44;4959729;28;19924;-84
2023/04/17 02:45:07;;;;;;;;;;;;;;;13.29;nan;102380.59;4955816;28;19926;-84
2023/04/17 02:47:32;;;;;;;;;;;;;;;13.28;nan;102388.88;4955511;28;19919;-84
2023/04/17 02:49:59;;;;;;;;;;;;;;;13.25;nan;102382.06;4957280;28;19926;-85
2023/04/17 02:52:24;;;;;;;;;;;;;;;13.21;nan;102380.06;4958981;29;19918;-85
2023/04/17 02:54:50;;;;;;;;;;;;;;;13.15;nan;102379.06;4957354;28;19926;-85
2023/04/17 02:57:15;;;;;;;;;;;;;;;13.13;nan;102385.72;4955580;28;19926;-84
2023/04/17 02:59:40;;;;;;;;;;;;;;;13.11;nan;102377.88;4955298;28;19957;-84
2023/04/17 03:02:06;;;;;;;;;;;;;;;13.10;nan;102386.16;4956674;28;19926;-85
2023/04/17 03:04:33;;;;;;;;;;;;;;;13.07;nan;102378.53;4959088;28;19919;-84
2023/04/17 03:06:59;;;;;;;;;;;;;;;13.05;nan;102378.75;4957934;28;19933;-85
2023/04/17 03:09:24;;;;;;;;;;;;;;;13.02;nan;102377.34;4956446;29;19990;-85
2023/04/17 03:11:50;;;;;;;;;;;;;;;13.00;nan;102392.06;4956490;28;19925;-84
2023/04/17 03:14:16;;;;;;;;;;;;;;;12.98;nan;102389.63;4962924;28;20179;-85
2023/04/17 03:16:41;;;;;;;;;;;;;;;12.97;nan;102393.34;4953170;28;19926;-86
2023/04/17 03:19:07;;;;;;;;;;;;;;;12.96;nan;102390.88;4950475;28;20017;-86
2023/04/17 03:21:32;;;;;;;;;;;;;;;12.95;nan;102394.63;4950357;28;19926;-85
2023/04/17 03:23:58;;;;;;;;;;;;;;;12.93;nan;102399.41;4954399;28;19926;-87
2023/04/17 03:26:23;;;;;;;;;;;;;;;12.89;nan;102396.31;4950794;28;19926;-86
2023/04/17 03:28:48;;;;;;;;;;;;;;;12.88;nan;102402.75;4951806;28;19918;-87
2023/04/17 03:31:14;;;;;;;;;;;;;;;12.86;nan;102402.16;4945834;28;20018;-87
2023/04/17 03:33:39;;;;;;;;;;;;;;;12.87;nan;102400.28;4950144;28;19948;-86
2023/04/17 03:36:05;;;;;;;;;;;;;;;12.84;nan;102401.56;4949207;28;19923;-86
2023/04/17 03:38:30;;;;;;;;;;;;;;;12.84;nan;102414.19;4950319;29;19933;-87
2023/04/17 03:40:56;;;;;;;;;;;;;;;12.80;nan;102407.59;4949251;28;20316;-86
2023/04/17 03:43:21;;;;;;;;;;;;;;;12.77;nan;102413.44;4948690;28;19949;-86
2023/04/17 03:45:47;;;;;;;;;;;;;;;12.75;nan;102421.72;4965625;28;20016;-87
2023/04/17 03:48:12;;;;;;;;;;;;;;;12.73;nan;102418.41;4948577;28;19918;-86
2023/04/17 03:50:38;;;;;;;;;;;;;;;12.72;nan;102427.53;4968516;28;19973;-85
2023/04/17 03:53:03;;;;;;;;;;;;;;;12.71;nan;102423.19;4952237;28;19929;-85
2023/04/17 03:55:28;;;;;;;;;;;;;;;12.70;nan;102419.69;4953117;29;19960;-86
2023/04/17 03:57:54;;;;;;;;;;;;;;;12.69;nan;102419.91;4951098;28;19919;-86
2023/04/17 04:00:20;;;;;;;;;;;;;;;12.68;nan;102415.56;4952888;28;19953;-85
2023/04/17 04:02:45;;;;;;;;;;;;;;;12.67;nan;102428.19;4965782;28;19941;-86
2023/04/17 04:05:10;;;;;;;;;;;;;;;12.68;nan;102440.59;4952911;28;20377;-85
2023/04/17 04:07:36;;;;;;;;;;;;;;;12.68;nan;102439.78;4952176;28;19973;-87
2023/04/17 04:10:01;;;;;;;;;;;;;;;12.69;nan;102454.88;4950717;28;20316;-87
2023/04/17 04:12:26;;;;;;;;;;;;;;;12.72;nan;102449.03;4954193;28;19969;-87
2023/04/17 04:14:52;;;;;;;;;;;;;;;12.71;nan;102447.41;4953690;28;19933;-87
2023/04/17 04:17:39;;;;;;;;;;;;;;;12.70;nan;102443.06;4952083;28;20584;-87
2023/04/17 04:20:21;;;;;;;;;;;;;;;12.66;nan;102437.31;4951239;28;20368;-86
2023/04/17 04:22:47;;;;;;;;;;;;;;;12.64;nan;102444.78;4953295;28;19997;-86
2023/04/17 04:25:16;;;;;;;;;;;;;;;12.64;nan;102441.25;4953198;28;19966;-86
2023/04/17 04:27:51;;;;;;;;;;;;;;;12.65;nan;102448.28;4953406;28;19934;-87
2023/04/17 04:30:26;;;;;;;;;;;;;;;12.67;nan;102448.88;4947813;28;19958;-86
2023/04/17 04:32:51;;;;;;;;;;;;;;;12.70;nan;102456.50;4951254;28;20147;-87
2023/04/17 04:35:37;;;;;;;;;;;;;;;12.69;nan;102454.88;4951712;28;20552;-86
2023/04/17 04:38:12;;;;;;;;;;;;;;;12.69;nan;102461.06;4952321;28;19934;-86
2023/04/17 04:40:52;;;;;;;;;;;;;;;12.69;nan;102469.13;4950140;28;20138;-86
2023/04/17 04:43:19;;;;;;;;;;;;;;;12.68;nan;102469.34;4952665;28;20308;-87
2023/04/17 04:45:47;;;;;;;;;;;;;;;12.67;nan;102462.34;4953043;28;19926;-87
2023/04/17 04:51:46;;;;;;;;;;;;;;;12.69;nan;102468.31;4948343;28;19937;-87
2023/04/17 05:00:52;;;;;;;;;;;;;;;12.80;nan;102467.59;4944423;28;20029;-87
2023/04/17 05:22:51;;;;;;;;;;;;;;;12.95;nan;102495.00;4869542;29;19958;-87
2023/04/17 05:25:37;;;;;;;;;;;;;;;13.02;nan;102497.59;4854590;29;19948;-88
2023/04/17 05:31:05;;;;;;;;;;;;;;;13.04;nan;102500.06;4817637;29;19964;-87
2023/04/17 05:33:31;;;;;;;;;;;;;;;13.09;nan;102502.91;4842241;29;20438;-87
2023/04/17 05:35:56;;;;;;;;;;;;;;;13.10;nan;102500.00;4852303;29;20322;-87
2023/04/17 05:38:21;;;;;;;;;;;;;;;13.13;nan;102502.28;4947040;28;19969;-87
2023/04/17 05:40:47;;;;;;;;;;;;;;;13.16;nan;102495.63;4948829;28;19919;-88
2023/04/17 05:43:12;;;;;;;;;;;;;;;13.18;nan;102502.44;4951591;28;19961;-85
2023/04/17 05:45:40;;;;;;;;;;;;;;;13.22;nan;102502.81;4947327;28;19922;-86
2023/04/17 05:48:05;;;;;;;;;;;;;;;13.25;nan;102511.28;4945739;28;19997;-88
2023/04/17 05:50:30;;;;;;;;;;;;;;;13.26;nan;102509.41;4950581;28;20369;-87
2023/04/17 05:52:56;;;;;;;;;;;;;;;13.25;nan;102505.06;4947940;28;20283;-86
2023/04/17 05:55:21;;;;;;;;;;;;;;;13.26;nan;102504.00;4950026;29;19918;-85
2023/04/17 05:57:46;;;;;;;;;;;;;;;13.27;nan;102511.03;4949401;28;19918;-86
2023/04/17 06:00:12;;;;;;;;;;;;;;;13.29;nan;102509.81;4946852;28;19923;-86
2023/04/17 06:02:39;;;;;;;;;;;;;;;13.32;nan;102513.91;4943518;29;20017;-86
2023/04/17 06:05:05;;;;;;;;;;;;;;;13.37;nan;102515.94;4947348;28;19925;-87
2023/04/17 06:07:31;;;;;;;;;;;;;;;13.37;nan;102516.75;4947048;29;20035;-87
2023/04/17 06:09:57;;;;;;;;;;;;;;;13.39;nan;102520.03;4946222;28;20179;-86
2023/04/17 06:12:22;;;;;;;;;;;;;;;13.40;nan;102507.41;4946684;28;20385;-85
2023/04/17 06:14:47;;;;;;;;;;;;;;;13.42;nan;102514.19;4947772;28;19914;-86
2023/04/17 06:17:13;;;;;;;;;;;;;;;13.45;nan;102513.75;4948076;28;19929;-86
2023/04/17 06:19:38;;;;;;;;;;;;;;;13.46;nan;102514.56;4946866;28;20404;-86
2023/04/17 06:22:04;;;;;;;;;;;;;;;13.47;nan;102513.56;4954101;28;19921;-86
2023/04/17 06:24:29;;;;;;;;;;;;;;;13.50;nan;102505.03;4945923;28;19918;-86
2023/04/17 06:26:55;;;;;;;;;;;;;;;13.56;nan;102515.69;4947925;28;19965;-86
2023/04/17 06:29:20;;;;;;;;;;;;;;;13.60;nan;102514.19;4947462;28;19959;-87
2023/04/17 06:31:46;;;;;;;;;;;;;;;13.64;nan;102521.81;4947640;28;19954;-87
2023/04/17 06:34:11;;;;;;;;;;;;;;;13.63;nan;102515.63;4949002;29;19918;-87
2023/04/17 06:36:37;;;;;;;;;;;;;;;13.65;nan;102527.00;4950148;28;20265;-86
2023/04/17 06:39:03;;;;;;;;;;;;;;;13.68;nan;102528.44;4948384;28;19958;-86
2023/04/17 06:41:28;;;;;;;;;;;;;;;13.69;nan;102524.69;4949870;28;19918;-86
2023/04/17 06:43:54;;;;;;;;;;;;;;;13.69;nan;102530.91;4949540;28;19973;-86
2023/04/17 06:46:20;;;;;;;;;;;;;;;13.73;nan;102531.25;4948321;28;20345;-86
2023/04/17 06:48:46;;;;;;;;;;;;;;;13.73;nan;102534.78;4949447;28;19922;-86
2023/04/17 06:51:11;;;;;;;;;;;;;;;13.75;nan;102534.53;4948759;28;19926;-86
2023/04/17 06:53:36;;;;;;;;;;;;;;;13.77;nan;102543.22;4950395;28;19925;-86
2023/04/17 06:56:02;;;;;;;;;;;;;;;13.80;nan;102540.06;4948564;28;19918;-86
2023/04/17 06:58:27;;;;;;;;;;;;;;;13.86;nan;102541.88;4948740;29;19929;-86
2023/04/17 07:00:52;;;;;;;;;;;;;;;13.91;nan;102552.78;4963621;28;19918;-86
2023/04/17 07:03:18;;;;;;;;;;;;;;;13.94;nan;102552.34;4948113;28;20062;-86
2023/04/17 07:05:43;;;;;;;;;;;;;;;13.95;nan;102550.47;4950067;29;19918;-86
2023/04/17 07:08:09;;;;;;;;;;;;;;;13.97;nan;102548.38;4942911;28;20308;-86
2023/04/17 07:10:34;;;;;;;;;;;;;;;14.00;nan;102543.34;4948659;29;19919;-86
2023/04/17 07:13:01;;;;;;;;;;;;;;;14.01;nan;102555.78;4948817;29;19957;-86
2023/04/17 07:15:29;;;;;;;;;;;;;;;14.00;nan;102553.28;4963818;28;19922;-86
2023/04/17 07:17:54;;;;;;;;;;;;;;;14.00;nan;102559.50;4946974;28;19919;-86
2023/04/17 07:20:20;;;;;;;;;;;;;;;14.01;nan;102560.34;4946793;28;20303;-86
2023/04/17 07:22:46;;;;;;;;;;;;;;;14.01;nan;102561.19;4949174;28;20007;-86
2023/04/17 07:25:11;;;;;;;;;;;;;;;14.02;nan;102562.81;4949802;29;19918;-85
2023/04/17 07:27:38;;;;;;;;;;;;;;;14.06;nan;102564.00;4952080;28;20013;-86
2023/04/17 07:30:05;;;;;;;;;;;;;;;14.08;nan;102561.91;4950131;28;19929;-86
2023/04/17 07:32:31;;;;;;;;;;;;;;;14.11;nan;102566.84;4949967;28;19950;-86
2023/04/17 07:34:56;;;;;;;;;;;;;;;14.13;nan;102575.53;4949370;29;19922;-87
2023/04/17 07:37:21;;;;;;;;;;;;;;;14.10;nan;102572.47;4952042;28;19929;-86
2023/04/17 07:39:50;;;;;;;;;;;;;;;14.10;nan;102578.69;4951497;28;19929;-86
2023/04/17 07:42:15;;;;;;;;;;;;;;;14.11;nan;102587.59;4950703;28;19922;-86
2023/04/17 07:44:41;;;;;;;;;;;;;;;14.13;nan;102590.88;4953108;29;20262;-86
2023/04/17 07:47:06;;;;;;;;;;;;;;;14.15;nan;102586.91;4951721;29;19925;-86
2023/04/17 07:49:31;;;;;;;;;;;;;;;14.19;nan;102590.81;4951918;29;20009;-86
2023/04/17 07:51:57;;;;;;;;;;;;;;;14.23;nan;102590.34;4952033;28;19926;-87
2023/04/17 07:54:22;;;;;;;;;;;;;;;14.25;nan;102602.53;4951926;29;19922;-86
2023/04/17 07:56:50;;;;;;;;;;;;;;;14.26;nan;102601.50;4951010;28;19919;-86
2023/04/17 07:59:16;;;;;;;;;;;;;;;14.25;nan;102602.53;4951537;28;20143;-86
2023/04/17 08:01:41;;;;;;;;;;;;;;;14.24;nan;102598.19;4951549;28;20110;-86
2023/04/17 08:04:07;;;;;;;;;;;;;;;14.27;nan;102602.31;4950062;29;19918;-86
2023/04/17 08:06:32;;;;;;;;;;;;;;;14.31;nan;102598.94;4950313;29;20354;-86
2023/04/17 08:08:59;;;;;;;;;;;;;;;14.37;nan;102597.22;4951042;28;19918;-86
2023/04/17 08:11:25;;;;;;;;;;;;;;;14.42;nan;102600.84;4948921;28;20062;-86
2023/04/17 08:13:50;;;;;;;;;;;;;;;14.47;nan;102601.03;4950263;29;20013;-86
2023/04/17 08:16:15;;;;;;;;;;;;;;;14.49;nan;102607.00;4951707;28;19922;-86
2023/04/17 08:18:41;;;;;;;;;;;;;;;14.48;nan;102604.53;4951810;29;20377;-87
2023/04/17 08:21:07;;;;;;;;;;;;;;;14.45;nan;102605.00;4950271;28;20350;-86
2023/04/17 08:23:32;;;;;;;;;;;;;;;14.45;nan;102613.91;4953395;29;20358;-86
2023/04/17 08:25:58;;;;;;;;;;;;;;;14.47;nan;102608.28;4950749;28;19950;-86
2023/04/17 08:28:23;;;;;;;;;;;;;;;14.54;nan;102614.41;4950906;28;19930;-86
2023/04/17 08:30:49;;;;;;;;;;;;;;;14.60;nan;102618.06;4951451;28;19918;-86
2023/04/17 08:33:17;;;;;;;;;;;;;;;14.65;nan;102620.91;4951373;28;20385;-86
2023/04/17 08:35:42;;;;;;;;;;;;;;;14.65;nan;102621.72;4950568;28;20718;-86
2023/04/17 08:38:12;;;;;;;;;;;;;;;14.69;nan;102620.22;4950542;29;20008;-86
2023/04/17 08:40:40;;;;;;;;;;;;;;;14.70;nan;102629.94;4949400;28;19985;-86
2023/04/17 08:43:11;;;;;;;;;;;;;;;14.76;nan;102631.75;4950541;29;20067;-85
2023/04/17 08:45:39;;;;;;;;;;;;;;;14.81;nan;102631.03;4951211;29;20094;-86
2023/04/17 08:48:05;;;;;;;;;;;;;;;14.86;nan;102633.03;4951096;28;19981;-87
2023/04/17 08:50:31;;;;;;;;;;;;;;;14.91;nan;102633.19;4951151;28;20443;-86
2023/04/17 08:52:56;;;;;;;;;;;;;;;14.95;nan;102631.69;4950622;28;19918;-85
2023/04/17 08:55:27;;;;;;;;;;;;;;;14.99;nan;102639.06;4950189;28;20316;-86
2023/04/17 08:57:53;;;;;;;;;;;;;;;15.02;nan;102643.19;4949849;28;19934;-86
2023/04/17 09:00:28;;;;;;;;;;;;;;;15.02;nan;102630.50;4949760;28;19926;-86
2023/04/17 09:02:55;;;;;;;;;;;;;;;15.08;nan;102636.84;4949520;29;20403;-86
2023/04/17 09:05:21;;;;;;;;;;;;;;;15.18;nan;102638.97;4951370;28;19930;-86
2023/04/17 09:07:47;;;;;;;;;;;;;;;15.22;nan;102635.56;4949055;28;19923;-85
2023/04/17 09:10:13;;;;;;;;;;;;;;;15.28;nan;102642.78;4950066;28;20320;-86
2023/04/17 09:12:40;;;;;;;;;;;;;;;15.32;nan;102638.53;4950240;28;19919;-85
2023/04/17 09:15:15;;;;;;;;;;;;;;;15.31;nan;102639.59;4950342;29;20038;-87
2023/04/17 09:17:41;;;;;;;;;;;;;;;15.30;nan;102651.47;4990913;23;19929;-85
2023/04/17 09:20:10;;;;;;;;;;;;;;;15.28;nan;102650.03;4983425;28;19937;-85
2023/04/17 09:22:37;;;;;;;;;;;;;;;15.25;nan;102648.59;4985541;28;19925;-87
2023/04/17 09:25:04;;;;;;;;;;;;;;;15.24;nan;102654.25;4986726;28;19922;-85
2023/04/17 09:27:29;;;;;;;;;;;;;;;15.25;nan;102654.00;4980366;28;19925;-85
2023/04/17 09:29:59;;;;;;;;;;;;;;;15.26;nan;102655.69;4981327;28;20040;-85
2023/04/17 09:32:25;;;;;;;;;;;;;;;15.29;nan;102659.78;4976104;28;20405;-85
2023/04/17 09:34:52;;;;;;;;;;;;;;;15.34;nan;102659.91;4981742;28;19922;-84
2023/04/17 09:37:17;;;;;;;;;;;;;;;15.38;nan;102659.19;4971214;28;20286;-84
2023/04/17 09:39:56;;;;;;;;;;;;;;;15.46;nan;102662.63;4972462;28;19922;-85
2023/04/17 09:42:22;;;;;;;;;;;;;;;15.49;nan;102657.56;4971309;28;19927;-85
2023/04/17 09:44:48;;;;;;;;;;;;;;;15.54;nan;102668.50;4976274;28;19922;-84
2023/04/17 09:47:15;;;;;;;;;;;;;;;15.56;nan;102660.16;4970265;28;19917;-84
2023/04/17 09:49:54;;;;;;;;;;;;;;;15.59;nan;102660.53;4981001;28;20188;-85
2023/04/17 09:52:22;;;;;;;;;;;;;;;15.62;nan;102656.56;4971486;28;19917;-84
2023/04/17 09:54:48;;;;;;;;;;;;;;;15.65;nan;102656.09;4971255;28;19965;-85
2023/04/17 09:57:13;;;;;;;;;;;;;;;15.71;nan;102655.94;4968648;28;19918;-84
2023/04/17 09:59:40;;;;;;;;;;;;;;;15.77;nan;102665.00;4977741;28;19933;-84
2023/04/17 10:02:08;;;;;;;;;;;;;;;15.81;nan;102660.78;4977377;28;19928;-84
2023/04/17 10:04:34;;;;;;;;;;;;;;;15.85;nan;102661.94;4974912;28;19922;-84
2023/04/17 10:07:01;;;;;;;;;;;;;;;15.88;nan;102661.47;4975181;28;19925;-84
2023/04/17 10:09:27;;;;;;;;;;;;;;;15.92;nan;102659.09;4976641;28;19922;-85
2023/04/17 10:11:53;;;;;;;;;;;;;;;15.97;nan;102653.78;4968836;28;19922;-85
2023/04/17 10:14:22;;;;;;;;;;;;;;;15.97;nan;102662.72;4984520;28;20379;-84
2023/04/17 10:16:47;;;;;;;;;;;;;;;16.00;nan;102664.97;4967418;28;19942;-84
2023/04/17 10:19:22;;;;;;;;;;;;;;;16.05;nan;102668.84;4968589;28;19922;-84
2023/04/17 10:22:08;;;;;;;;;;;;;;;16.10;nan;102669.75;4963830;28;19984;-84
2023/04/17 10:24:34;;;;;;;;;;;;;;;16.14;nan;102672.81;4970941;28;19953;-84
2023/04/17 10:27:00;;;;;;;;;;;;;;;16.11;nan;102665.19;4977677;28;19919;-85
2023/04/17 10:29:44;;;;;;;;;;;;;;;16.09;nan;102664.59;4976315;28;19973;-84
2023/04/17 10:32:09;;;;;;;;;;;;;;;16.08;nan;102671.06;4972081;28;19979;-82
2023/04/17 10:34:35;;;;;;;;;;;;;;;16.08;nan;102669.19;4978465;28;19918;-83
2023/04/17 10:37:02;;;;;;;;;;;;;;;16.07;nan;102664.03;4982449;28;19933;-82
2023/04/17 10:39:46;;;;;;;;;;;;;;;16.03;nan;102666.38;4958943;28;20285;-82
2023/04/17 10:42:16;;;;;;;;;;;;;;;16.02;nan;102652.03;4969732;28;20012;-82
2023/04/17 10:44:43;;;;;;;;;;;;;;;16.07;nan;102661.31;4980513;28;19976;-82
2023/04/17 10:47:12;;;;;;;;;;;;;;;16.11;nan;102651.66;4977416;28;19918;-82
2023/04/17 10:49:47;;;;;;;;;;;;;;;16.14;nan;102657.41;4972283;28;20142;-82
2023/04/17 10:52:31;;;;;;;;;;;;;;;16.18;nan;102660.47;4975766;28;20191;-82
2023/04/17 10:55:34;;;;;;;;;;;;;;;16.20;nan;102650.25;4974738;28;19953;-82
2023/04/17 10:58:02;;;;;;;;;;;;;;;16.23;nan;102660.56;4966950;28;19918;-82
2023/04/17 11:00:37;;;;;;;;;;;;;;;16.26;nan;102651.97;4976779;28;19926;-81
2023/04/17 11:03:03;;;;;;;;;;;;;;;16.26;nan;102647.38;4974451;28;20396;-82
2023/04/17 11:05:30;;;;;;;;;;;;;;;16.29;nan;102648.78;4971119;28;20541;-81
2023/04/17 11:07:56;;;;;;;;;;;;;;;16.30;nan;102650.44;4971256;28;20170;-82
2023/04/17 11:10:22;;;;;;;;;;;;;;;16.33;nan;102649.94;4978299;28;20410;-82
2023/04/17 11:12:48;;;;;;;;;;;;;;;16.35;nan;102647.03;4965843;28;19922;-82
2023/04/17 11:15:13;;;;;;;;;;;;;;;16.35;nan;102658.66;4974266;28;19928;-82
2023/04/17 11:17:44;;;;;;;;;;;;;;;16.34;nan;102651.63;4971305;28;20379;-82
2023/04/17 11:20:10;;;;;;;;;;;;;;;16.36;nan;102659.50;4973463;28;19930;-81
2023/04/17 11:22:35;;;;;;;;;;;;;;;16.37;nan;102650.31;4972498;28;19928;-82
2023/04/17 11:25:00;;;;;;;;;;;;;;;16.39;nan;102654.41;4978302;28;20037;-82
2023/04/17 11:27:27;;;;;;;;;;;;;;;16.39;nan;102657.13;4972115;28;19926;-82
2023/04/17 11:29:52;;;;;;;;;;;;;;;16.41;nan;102659.59;4972837;28;19926;-82
2023/04/17 11:32:17;;;;;;;;;;;;;;;16.39;nan;102661.72;4971717;28;19922;-82
2023/04/17 11:34:43;;;;;;;;;;;;;;;16.38;nan;102657.38;4978319;28;19917;-82
2023/04/17 11:37:12;;;;;;;;;;;;;;;16.35;nan;102661.38;4972507;28;20009;-82
2023/04/17 11:39:40;;;;;;;;;;;;;;;16.38;nan;102660.06;4975114;28;19965;-82
2023/04/17 11:42:06;;;;;;;;;;;;;;;16.35;nan;102664.09;4973894;28;19922;-82
2023/04/17 11:44:31;;;;;;;;;;;;;;;16.34;nan;102665.13;4974237;28;19922;-82
2023/04/17 11:46:59;;;;;;;;;;;;;;;16.34;nan;102673.25;4974350;28;19933;-82
2023/04/17 11:49:26;;;;;;;;;;;;;;;16.35;nan;102672.19;4971675;28;19922;-82
2023/04/17 11:51:52;;;;;;;;;;;;;;;16.37;nan;102670.06;4971245;28;20038;-82
2023/04/17 11:54:25;;;;;;;;;;;;;;;16.32;nan;102680.75;4977144;28;19922;-81
2023/04/17 11:57:01;;;;;;;;;;;;;;;16.24;nan;102689.25;4970883;28;19989;-83
2023/04/17 11:59:30;;;;;;;;;;;;;;;16.19;nan;102681.88;4978983;28;19949;-83
2023/04/17 12:01:58;;;;;;;;;;;;;;;16.15;nan;102683.38;4970487;28;19922;-82
2023/04/17 12:04:24;;;;;;;;;;;;;;;16.13;nan;102687.41;4975294;28;19925;-82
2023/04/17 12:06:49;;;;;;;;;;;;;;;16.15;nan;102685.28;4972341;28;19925;-82
2023/04/17 12:09:20;;;;;;;;;;;;;;;16.14;nan;102683.63;4972120;28;19918;-82
2023/04/17 12:11:45;;;;;;;;;;;;;;;16.13;nan;102682.81;4969481;28;20292;-82
2023/04/17 12:14:11;;;;;;;;;;;;;;;16.13;nan;102690.91;4975395;28;19932;-82
2023/04/17 12:16:36;;;;;;;;;;;;;;;16.13;nan;102684.69;4971784;28;19922;-82
2023/04/17 12:19:02;;;;;;;;;;;;;;;16.17;nan;102691.28;4971471;28;20407;-82
2023/04/17 12:21:27;;;;;;;;;;;;;;;16.23;nan;102687.63;4970796;28;19918;-82
2023/04/17 12:23:53;;;;;;;;;;;;;;;16.26;nan;102692.53;4976052;28;19926;-82
2023/04/17 12:26:18;;;;;;;;;;;;;;;16.27;nan;102683.38;4975897;28;19922;-82
2023/04/17 12:28:44;;;;;;;;;;;;;;;16.28;nan;102685.84;4967792;28;19918;-81
2023/04/17 12:31:09;;;;;;;;;;;;;;;16.30;nan;102689.13;4969406;28;19978;-82
2023/04/17 12:33:34;;;;;;;;;;;;;;;16.32;nan;102695.09;4970008;28;19989;-81
2023/04/17 12:36:00;;;;;;;;;;;;;;;16.25;nan;102696.31;4972184;28;19922;-82
2023/04/17 12:38:26;;;;;;;;;;;;;;;16.21;nan;102695.97;4970291;28;19932;-82
2023/04/17 12:40:51;;;;;;;;;;;;;;;16.15;nan;102696.09;4976750;28;20623;-83
2023/04/17 12:43:17;;;;;;;;;;;;;;;16.10;nan;102698.69;4974630;28;19926;-82
2023/04/17 12:45:44;;;;;;;;;;;;;;;16.02;nan;102698.00;4967301;28;19960;-82
2023/04/17 12:48:10;;;;;;;;;;;;;;;15.98;nan;102704.97;4964258;28;19926;-82
2023/04/17 12:50:42;;;;;;;;;;;;;;;15.97;nan;102700.56;4968612;28;19950;-82
2023/04/17 12:53:11;;;;;;;;;;;;;;;15.96;nan;102698.94;4969217;28;19960;-82
2023/04/17 12:55:40;;;;;;;;;;;;;;;15.97;nan;102699.75;4969145;28;20012;-82
2023/04/17 12:58:10;;;;;;;;;;;;;;;16.01;nan;102704.47;4973989;28;19922;-82
2023/04/17 13:00:35;;;;;;;;;;;;;;;16.06;nan;102702.94;4968442;28;19937;-82
2023/04/17 13:03:01;;;;;;;;;;;;;;;16.07;nan;102707.28;4971083;28;19926;-82
2023/04/17 13:05:27;;;;;;;;;;;;;;;16.14;nan;102699.84;4971787;28;19923;-82
2023/04/17 13:07:53;;;;;;;;;;;;;;;16.22;nan;102707.63;4969943;28;19926;-82
2023/04/17 13:10:18;;;;;;;;;;;;;;;16.27;nan;102705.00;4972073;28;19977;-82
2023/04/17 13:12:43;;;;;;;;;;;;;;;16.36;nan;102709.00;4970696;28;19997;-82
2023/04/17 13:15:09;;;;;;;;;;;;;;;16.39;nan;102705.00;4971981;28;19928;-82
2023/04/17 13:17:35;;;;;;;;;;;;;;;16.39;nan;102708.53;4972347;28;19926;-82
2023/04/17 13:20:01;;;;;;;;;;;;;;;16.37;nan;102704.41;4976808;28;20414;-82
2023/04/17 13:22:26;;;;;;;;;;;;;;;16.38;nan;102706.06;4968451;28;20395;-83
2023/04/17 13:24:51;;;;;;;;;;;;;;;16.39;nan;102713.94;4967798;28;20422;-82
2023/04/17 13:27:17;;;;;;;;;;;;;;;16.41;nan;102711.81;4970608;28;19924;-82
2023/04/17 13:29:42;;;;;;;;;;;;;;;16.44;nan;102711.31;4969905;28;19930;-82